createdAt,value
2022-11-18T00:00:17.892Z,4.20
2022-11-18T00:03:18.904Z,3.92
2022-11-18T00:06:20.903Z,3.97
2022-11-18T00:09:21.918Z,3.97
2022-11-18T00:12:40.920Z,3.75
2022-11-18T00:15:41.916Z,4.20
2022-11-18T00:18:42.924Z,4.25
2022-11-18T00:21:43.895Z,4.18
2022-11-18T00:24:44.909Z,3.85
2022-11-18T00:27:45.909Z,3.65
2022-11-18T00:30:46.919Z,3.72
2022-11-18T00:33:47.907Z,3.72
2022-11-18T00:36:48.925Z,4.65
2022-11-18T00:39:49.919Z,3.65
2022-11-18T00:42:59.928Z,4.53
2022-11-18T00:46:00.932Z,4.05
2022-11-18T00:49:01.933Z,3.92
2022-11-18T00:52:02.932Z,4.40
2022-11-18T00:55:03.974Z,3.38
2022-11-18T00:57:57.927Z,3.83
2022-11-18T01:01:00.981Z,4.72
2022-11-18T01:04:01.918Z,4.15
2022-11-18T01:07:02.976Z,3.88
2022-11-18T01:10:04.924Z,4.30
2022-11-18T01:13:23.951Z,4.68
2022-11-18T01:16:24.936Z,4.07
2022-11-18T01:19:25.937Z,4.60
2022-11-18T01:22:26.958Z,4.57
2022-11-18T01:25:27.941Z,4.22
2022-11-18T01:28:29.935Z,4.15
2022-11-18T01:31:32.932Z,4.35
2022-11-18T01:34:33.943Z,5.05
2022-11-18T01:37:34.959Z,4.75
2022-11-18T01:40:35.966Z,4.13
2022-11-18T01:43:36.935Z,4.43
2022-11-18T01:46:39.944Z,4.10
2022-11-18T01:49:40.941Z,4.57
2022-11-18T01:52:41.955Z,4.47
2022-11-18T01:55:46.147Z,4.10
2022-11-18T01:59:01.932Z,3.92
2022-11-18T02:02:03.057Z,4.43
2022-11-18T02:05:04.959Z,5.05
2022-11-18T02:08:05.967Z,4.90
2022-11-18T02:11:06.969Z,4.25
2022-11-18T02:14:08.181Z,4.55
2022-11-18T02:17:27.954Z,3.70
2022-11-18T02:20:41.175Z,4.53
2022-11-18T02:24:02.975Z,5.00
2022-11-18T02:27:30.975Z,4.53
2022-11-18T02:30:31.962Z,4.45
2022-11-18T02:33:56.984Z,4.40
2022-11-18T02:37:04.978Z,4.10
2022-11-18T02:40:12.970Z,3.92
2022-11-18T02:43:17.966Z,4.30
2022-11-18T02:46:23.996Z,4.25
2022-11-18T02:49:30.963Z,4.68
2022-11-18T02:52:32.027Z,4.05
2022-11-18T02:55:32.975Z,4.53
2022-11-18T02:58:34.083Z,4.25
2022-11-18T03:01:38.701Z,3.97
2022-11-18T03:04:40.000Z,3.72
2022-11-18T03:07:45.024Z,4.35
2022-11-18T03:10:50.988Z,4.68
2022-11-18T03:14:00.983Z,4.85
2022-11-18T03:17:28.971Z,4.57
2022-11-18T03:20:36.994Z,4.00
2022-11-18T03:23:49.978Z,4.47
2022-11-18T03:26:53.003Z,4.82
2022-11-18T03:30:10.982Z,5.05
2022-11-18T03:33:16.987Z,4.20
2022-11-18T03:36:21.977Z,4.00
2022-11-18T03:39:24.022Z,4.28
2022-11-18T03:42:49.000Z,4.30
2022-11-18T03:46:21.051Z,3.85
2022-11-18T03:49:25.004Z,4.15
2022-11-18T03:52:32.016Z,4.13
2022-11-18T03:55:36.999Z,3.90
2022-11-18T03:58:43.003Z,4.60
2022-11-18T04:01:49.076Z,4.15
2022-11-18T04:04:43.016Z,4.38
2022-11-18T04:08:07.036Z,5.25
2022-11-18T04:11:46.020Z,4.70
2022-11-18T04:14:48.007Z,4.63
2022-11-18T04:17:50.016Z,4.80
2022-11-18T04:20:51.013Z,4.65
2022-11-18T04:23:52.023Z,4.25
2022-11-18T04:26:53.154Z,5.07
2022-11-18T04:29:54.038Z,4.93
2022-11-18T04:32:55.020Z,4.78
2022-11-18T04:35:56.019Z,5.70
2022-11-18T04:38:57.214Z,4.45
2022-11-18T04:42:03.023Z,4.82
2022-11-18T04:45:04.087Z,4.18
2022-11-18T04:48:05.009Z,4.60
2022-11-18T04:51:06.052Z,4.75
2022-11-18T04:54:07.022Z,4.50
2022-11-18T04:57:08.031Z,5.03
2022-11-18T05:00:09.020Z,6.20
2022-11-18T05:03:10.042Z,5.55
2022-11-18T05:06:15.055Z,5.32
2022-11-18T05:09:17.449Z,6.03
2022-11-18T05:12:36.036Z,5.22
2022-11-18T05:15:37.037Z,5.85
2022-11-18T05:18:38.049Z,5.63
2022-11-18T05:21:32.029Z,6.13
2022-11-18T05:24:33.063Z,6.05
2022-11-18T05:27:34.043Z,5.70
2022-11-18T05:30:35.070Z,6.55
2022-11-18T05:33:36.056Z,5.75
2022-11-18T05:36:37.093Z,5.50
2022-11-18T05:39:39.045Z,6.10
2022-11-18T05:42:59.004Z,5.60
2022-11-18T05:46:00.053Z,5.85
2022-11-18T05:49:01.061Z,6.07
2022-11-18T05:52:02.079Z,6.47
2022-11-18T05:55:04.075Z,5.95
2022-11-18T05:58:05.091Z,5.53
2022-11-18T06:01:09.067Z,5.97
2022-11-18T06:04:11.078Z,6.32
2022-11-18T06:07:20.155Z,5.63
2022-11-18T06:10:21.076Z,5.80
2022-11-18T06:13:24.071Z,5.60
2022-11-18T06:16:26.093Z,5.88
2022-11-18T06:19:27.072Z,6.25
2022-11-18T06:22:28.091Z,6.07
2022-11-18T06:25:29.057Z,5.38
2022-11-18T06:28:30.100Z,6.10
2022-11-18T06:31:24.074Z,5.90
2022-11-18T06:34:25.100Z,6.55
2022-11-18T06:37:30.068Z,5.78
2022-11-18T06:40:34.719Z,5.28
2022-11-18T06:43:51.082Z,5.65
2022-11-18T06:47:04.086Z,5.50
2022-11-18T06:50:05.114Z,6.13
2022-11-18T06:53:06.150Z,6.30
2022-11-18T06:56:07.073Z,5.50
2022-11-18T06:59:10.101Z,6.03
2022-11-18T07:02:11.082Z,5.57
2022-11-18T07:05:12.074Z,6.78
2022-11-18T07:08:13.222Z,6.40
2022-11-18T07:11:14.099Z,5.80
2022-11-18T07:14:15.092Z,5.70
2022-11-18T07:17:16.099Z,6.18
2022-11-18T07:20:17.111Z,6.10
2022-11-18T07:23:18.078Z,6.25
2022-11-18T07:26:19.128Z,6.53
2022-11-18T07:29:20.329Z,6.38
2022-11-18T07:32:21.115Z,6.65
2022-11-18T07:35:23.092Z,6.25
2022-11-18T07:38:24.092Z,6.72
2022-11-18T07:41:33.103Z,6.97
2022-11-18T07:44:35.100Z,6.68
2022-11-18T07:47:36.105Z,7.43
2022-11-18T07:50:37.106Z,7.60
2022-11-18T07:53:38.128Z,6.72
2022-11-18T07:56:32.119Z,6.88
2022-11-18T07:59:34.113Z,7.15
2022-11-18T08:02:36.102Z,7.07
2022-11-18T08:05:37.234Z,7.38
2022-11-18T08:08:38.381Z,6.85
2022-11-18T08:11:39.133Z,6.93
2022-11-18T08:14:41.150Z,6.72
2022-11-18T08:17:42.115Z,6.97
2022-11-18T08:20:43.118Z,7.43
2022-11-18T08:23:44.131Z,7.03
2022-11-18T08:26:45.124Z,7.50
2022-11-18T08:29:46.128Z,7.43
2022-11-18T08:32:47.125Z,8.35
2022-11-18T08:35:48.123Z,7.32
2022-11-18T08:38:49.112Z,7.95
2022-11-18T08:41:55.317Z,7.55
2022-11-18T08:44:57.166Z,7.13
2022-11-18T08:47:58.395Z,7.65
2022-11-18T08:50:59.184Z,7.72
2022-11-18T08:54:00.147Z,7.38
2022-11-18T08:57:01.173Z,8.85
2022-11-18T09:00:02.182Z,8.38
2022-11-18T09:03:03.157Z,8.50
2022-11-18T09:06:04.155Z,9.05
2022-11-18T09:09:06.679Z,8.85
2022-11-18T09:12:07.153Z,9.52
2022-11-18T09:15:15.551Z,8.70
2022-11-18T09:18:16.192Z,7.88
2022-11-18T09:21:20.131Z,8.30
2022-11-18T09:24:21.258Z,7.90
2022-11-18T09:27:22.145Z,6.97
2022-11-18T09:30:23.234Z,8.23
2022-11-18T09:33:24.154Z,6.55
2022-11-18T09:36:36.165Z,6.82
2022-11-18T09:39:38.152Z,6.55
2022-11-18T09:43:09.154Z,5.88
2022-11-18T09:46:28.161Z,5.53
2022-11-18T09:49:40.168Z,5.05
2022-11-18T09:52:52.182Z,5.45
2022-11-18T09:55:53.184Z,4.47
2022-11-18T09:58:54.168Z,3.85
2022-11-18T10:01:55.228Z,3.75
2022-11-18T10:04:56.164Z,3.70
2022-11-18T10:08:31.189Z,3.00
2022-11-18T10:11:38.631Z,2.83
2022-11-18T10:14:58.172Z,2.75
2022-11-18T10:18:58.389Z,3.38
2022-11-18T10:21:59.379Z,2.70
2022-11-18T10:25:04.152Z,2.72
2022-11-18T10:28:05.217Z,2.75
2022-11-18T10:31:06.198Z,2.47
2022-11-18T10:34:14.181Z,2.80
2022-11-18T10:38:06.349Z,2.45
2022-11-18T10:41:15.206Z,2.55
2022-11-18T10:44:16.384Z,2.22
2022-11-18T10:47:36.212Z,2.35
2022-11-18T10:50:55.828Z,2.28
2022-11-18T10:53:56.202Z,2.13
2022-11-18T10:57:01.256Z,2.15
2022-11-18T11:00:04.242Z,1.90
2022-11-18T11:03:05.235Z,2.00
2022-11-18T11:06:28.189Z,1.83
2022-11-18T11:09:29.208Z,1.50
2022-11-18T11:12:31.463Z,2.75
2022-11-18T11:15:38.344Z,1.92
2022-11-18T11:18:48.199Z,1.63
2022-11-18T11:21:49.203Z,1.90
2022-11-18T11:25:08.355Z,2.63
2022-11-18T11:28:17.167Z,2.25
2022-11-18T11:31:35.228Z,2.20
2022-11-18T11:35:13.212Z,1.90
2022-11-18T11:38:34.251Z,1.90
2022-11-18T11:41:44.419Z,2.27
2022-11-18T11:44:58.239Z,1.85
2022-11-18T11:48:18.214Z,2.00
2022-11-18T11:51:38.217Z,2.08
2022-11-18T11:54:52.210Z,2.15
2022-11-18T11:58:05.249Z,1.83
2022-11-18T12:01:45.237Z,2.10
2022-11-18T12:04:57.215Z,1.90
2022-11-18T12:08:34.253Z,2.10
2022-11-18T12:11:47.251Z,1.98
2022-11-18T12:15:00.241Z,1.98
2022-11-18T12:18:09.532Z,1.90
2022-11-18T12:21:10.228Z,1.73
2022-11-18T12:24:38.271Z,2.67
2022-11-18T12:27:39.231Z,2.10
2022-11-18T12:30:41.223Z,1.63
2022-11-18T12:33:42.249Z,1.48
2022-11-18T12:36:46.231Z,2.28
2022-11-18T12:39:50.243Z,1.70
2022-11-18T12:43:13.238Z,2.20
2022-11-18T12:49:37.272Z,2.00
2022-11-18T12:52:44.317Z,3.15
2022-11-18T12:55:46.270Z,2.85
2022-11-18T12:58:48.280Z,2.47
2022-11-18T13:01:49.267Z,2.28
2022-11-18T13:04:53.179Z,3.00
2022-11-18T13:08:17.257Z,2.70
2022-11-18T13:11:49.331Z,2.75
2022-11-18T13:18:20.299Z,2.90
2022-11-18T13:21:45.313Z,3.03
2022-11-18T13:24:59.312Z,3.15
2022-11-18T13:28:08.304Z,3.00
2022-11-18T13:31:15.329Z,2.88
2022-11-18T13:34:17.284Z,2.95
2022-11-18T13:37:29.281Z,3.13
2022-11-18T13:40:33.265Z,3.15
2022-11-18T13:43:39.316Z,3.17
2022-11-18T13:46:41.258Z,3.00
2022-11-18T13:49:50.780Z,3.30
2022-11-18T13:52:57.295Z,3.65
2022-11-18T13:56:01.295Z,3.22
2022-11-18T13:59:19.288Z,3.40
2022-11-18T14:02:24.269Z,3.10
2022-11-18T14:05:25.309Z,3.15
2022-11-18T14:08:38.271Z,3.30
2022-11-18T14:11:56.295Z,3.28
2022-11-18T14:14:57.291Z,3.22
2022-11-18T14:18:12.349Z,3.42
2022-11-18T14:21:14.281Z,3.28
2022-11-18T14:24:15.555Z,3.85
2022-11-18T14:27:42.291Z,4.15
2022-11-18T14:30:54.316Z,3.50
2022-11-18T14:33:55.326Z,3.63
2022-11-18T14:36:58.317Z,3.65
2022-11-18T14:40:08.426Z,3.60
2022-11-18T14:43:10.295Z,4.20
2022-11-18T14:46:13.285Z,4.07
2022-11-18T14:49:18.950Z,3.83
2022-11-18T14:52:21.291Z,4.07
2022-11-18T14:55:24.325Z,4.78
2022-11-18T14:58:28.293Z,3.67
2022-11-18T15:01:31.432Z,4.10
2022-11-18T15:04:32.328Z,4.07
2022-11-18T15:07:33.366Z,3.75
2022-11-18T15:10:34.390Z,4.95
2022-11-18T15:13:35.336Z,4.28
2022-11-18T15:16:45.473Z,6.40
2022-11-18T15:19:39.335Z,6.78
2022-11-18T15:22:40.319Z,7.03
2022-11-18T15:25:41.359Z,7.80
2022-11-18T15:28:43.332Z,6.18
2022-11-18T15:31:45.298Z,6.85
2022-11-18T15:34:46.331Z,6.07
2022-11-18T15:37:48.340Z,5.68
2022-11-18T15:40:49.341Z,5.65
2022-11-18T15:43:50.324Z,5.28
2022-11-18T15:46:54.326Z,5.65
2022-11-18T15:49:55.347Z,5.35
2022-11-18T15:52:56.341Z,6.43
2022-11-18T15:55:57.338Z,6.75
2022-11-18T15:58:59.363Z,7.45
2022-11-18T16:02:01.345Z,6.65
2022-11-18T16:04:56.329Z,7.03
2022-11-18T16:07:57.321Z,6.53
2022-11-18T16:11:16.343Z,7.55
2022-11-18T16:14:22.963Z,7.03
2022-11-18T16:17:24.314Z,7.68
2022-11-18T16:20:26.464Z,7.53
2022-11-18T16:23:27.507Z,7.28
2022-11-18T16:26:28.352Z,7.68
2022-11-18T16:29:29.375Z,7.03
2022-11-18T16:32:30.378Z,6.60
2022-11-18T16:35:31.334Z,7.25
2022-11-18T16:38:32.326Z,7.63
2022-11-18T16:41:38.386Z,7.88
2022-11-18T16:44:39.345Z,9.20
2022-11-18T16:47:40.366Z,7.10
2022-11-18T16:50:41.345Z,7.75
2022-11-18T16:53:42.397Z,7.53
2022-11-18T16:56:46.348Z,8.20
2022-11-18T16:59:48.438Z,7.47
2022-11-18T17:02:49.389Z,7.80
2022-11-18T17:05:51.352Z,7.97
2022-11-18T17:08:52.342Z,8.63
2022-11-18T17:11:53.391Z,8.90
2022-11-18T17:14:55.376Z,8.63
2022-11-18T17:17:57.379Z,8.73
2022-11-18T17:20:58.368Z,8.15
2022-11-18T17:23:52.343Z,7.72
2022-11-18T17:26:53.367Z,8.43
2022-11-18T17:29:57.386Z,8.05
2022-11-18T17:32:58.409Z,7.78
2022-11-18T17:35:59.388Z,7.78
2022-11-18T17:39:02.389Z,7.40
2022-11-18T17:42:21.369Z,7.50
2022-11-18T17:45:22.384Z,7.50
2022-11-18T17:48:23.386Z,7.55
2022-11-18T17:51:24.393Z,5.47
2022-11-18T17:54:25.350Z,5.88
2022-11-18T17:57:26.399Z,6.25
2022-11-18T18:00:27.383Z,7.65
2022-11-18T18:03:28.399Z,6.10
2022-11-18T18:06:29.391Z,5.22
2022-11-18T18:09:31.471Z,4.93
2022-11-18T18:12:43.383Z,6.78
2022-11-18T18:15:44.385Z,5.22
2022-11-18T18:18:45.383Z,6.07
2022-11-18T18:21:46.400Z,7.32
2022-11-18T18:24:47.413Z,6.32
2022-11-18T18:27:48.372Z,3.10
2022-11-18T18:30:49.394Z,4.30
2022-11-18T18:33:51.430Z,4.05
2022-11-18T18:36:52.413Z,3.90
2022-11-18T18:39:53.413Z,3.50
2022-11-18T18:42:54.398Z,4.15
2022-11-18T18:46:13.389Z,5.72
2022-11-18T18:49:26.428Z,4.72
2022-11-18T18:52:27.390Z,5.00
2022-11-18T18:55:32.155Z,5.00
2022-11-18T18:58:32.407Z,6.78
2022-11-18T19:01:33.466Z,8.13
2022-11-18T19:04:34.401Z,6.68
2022-11-18T19:07:37.478Z,8.13
2022-11-18T19:10:38.420Z,7.55
2022-11-18T19:13:41.390Z,5.40
2022-11-18T19:16:42.438Z,8.35
2022-11-18T19:20:01.536Z,7.05
2022-11-18T19:23:05.754Z,7.22
2022-11-18T19:26:16.404Z,7.32
2022-11-18T19:29:20.364Z,6.78
2022-11-18T19:32:23.441Z,6.45
2022-11-18T19:35:25.423Z,7.32
2022-11-18T19:38:26.403Z,7.38
2022-11-18T19:41:28.431Z,9.23
2022-11-18T19:44:29.420Z,9.30
2022-11-18T19:47:30.437Z,10.93
2022-11-18T19:50:31.425Z,10.18
2022-11-18T19:53:41.402Z,12.07
2022-11-18T19:56:42.458Z,13.52
2022-11-18T19:59:43.432Z,8.10
2022-11-18T20:02:44.459Z,12.77
2022-11-18T20:06:00.438Z,12.77
2022-11-18T20:09:02.432Z,12.50
2022-11-18T20:12:03.435Z,9.85
2022-11-18T20:15:04.629Z,9.30
2022-11-18T20:18:05.435Z,8.85
2022-11-18T20:21:06.441Z,8.43
2022-11-18T20:24:11.451Z,8.52
2022-11-18T20:27:12.461Z,9.50
2022-11-18T20:30:13.410Z,10.13
2022-11-18T20:33:14.591Z,10.23
2022-11-18T20:36:26.474Z,11.18
2022-11-18T20:39:28.438Z,11.00
2022-11-18T20:42:48.646Z,12.60
2022-11-18T20:45:53.417Z,11.77
2022-11-18T20:48:54.483Z,11.73
2022-11-18T20:51:55.430Z,11.85
2022-11-18T20:54:59.187Z,11.17
2022-11-18T20:58:03.467Z,12.95
2022-11-18T21:01:04.492Z,10.15
2022-11-18T21:04:07.466Z,11.18
2022-11-18T21:07:08.523Z,11.15
2022-11-18T21:10:09.439Z,11.48
2022-11-18T21:13:28.458Z,12.15
2022-11-18T21:16:29.484Z,12.77
2022-11-18T21:19:23.485Z,11.57
2022-11-18T21:22:24.477Z,13.27
2022-11-18T21:25:25.470Z,11.65
2022-11-18T21:28:26.458Z,15.65
2022-11-18T21:31:27.449Z,15.32
2022-11-18T21:34:29.457Z,17.02
2022-11-18T21:37:30.450Z,15.90
2022-11-18T21:40:31.486Z,13.30
2022-11-18T21:44:03.413Z,15.98
2022-11-18T21:46:54.496Z,15.60
2022-11-18T21:49:55.472Z,13.93
2022-11-18T21:52:56.473Z,13.35
2022-11-18T21:55:57.485Z,12.50
2022-11-18T21:58:58.494Z,12.55
2022-11-18T22:01:59.479Z,12.52
2022-11-18T22:05:00.468Z,13.13
2022-11-18T22:08:01.500Z,13.90
2022-11-18T22:11:02.463Z,12.65
2022-11-18T22:14:04.495Z,10.80
2022-11-18T22:17:05.486Z,11.80
2022-11-18T22:20:06.480Z,10.18
2022-11-18T22:23:07.477Z,10.73
2022-11-18T22:26:15.501Z,10.93
2022-11-18T22:29:16.833Z,12.13
2022-11-18T22:32:17.546Z,11.20
2022-11-18T22:35:18.479Z,10.77
2022-11-18T22:38:19.497Z,10.65
2022-11-18T22:41:41.490Z,11.77
2022-11-18T22:44:42.495Z,12.00
2022-11-18T22:47:43.505Z,12.13
2022-11-18T22:50:44.541Z,12.40
2022-11-18T22:53:46.495Z,12.68
2022-11-18T22:56:47.501Z,13.10
2022-11-18T22:59:48.511Z,12.48
2022-11-18T23:02:49.528Z,11.73
2022-11-18T23:05:50.478Z,13.82
2022-11-18T23:08:52.510Z,13.68
2022-11-18T23:12:11.540Z,13.68
2022-11-18T23:15:12.475Z,12.75
2022-11-18T23:18:13.522Z,13.40
2022-11-18T23:21:15.510Z,12.93
2022-11-18T23:24:16.513Z,13.93
2022-11-18T23:27:17.525Z,14.30
2022-11-18T23:30:18.530Z,13.77
2022-11-18T23:33:19.524Z,13.52
2022-11-18T23:36:21.529Z,14.23
2022-11-18T23:39:22.655Z,14.23
2022-11-18T23:42:23.634Z,14.73
2022-11-18T23:45:25.537Z,13.52
2022-11-18T23:48:26.614Z,14.85
2022-11-18T23:51:36.553Z,15.90
2022-11-18T23:54:37.511Z,15.18
2022-11-18T23:57:38.529Z,17.40
